createdAt,value
2018-02-24T00:00:53.379Z,14.83
2018-02-24T00:03:23.705Z,17.67
2018-02-24T00:05:52.420Z,16.47
2018-02-24T00:08:21.487Z,18.10
2018-02-24T00:10:51.195Z,15.63
2018-02-24T00:13:19.882Z,15.83
2018-02-24T00:15:49.389Z,14.60
2018-02-24T00:18:18.890Z,30.17
2018-02-24T00:20:48.395Z,18.97
2018-02-24T00:23:17.295Z,15.43
2018-02-24T00:25:46.796Z,21.27
2018-02-24T00:28:16.441Z,16.67
2018-02-24T00:30:45.914Z,15.33
2018-02-24T00:33:14.899Z,13.00
2018-02-24T00:35:44.506Z,18.40
2018-02-24T00:38:14.830Z,14.40
2018-02-24T00:40:44.060Z,18.40
2018-02-24T00:43:13.752Z,17.10
2018-02-24T00:45:43.398Z,11.50
2018-02-24T00:48:12.553Z,26.10
2018-02-24T00:50:42.258Z,22.07
2018-02-24T00:53:11.156Z,16.07
2018-02-24T00:55:41.472Z,17.50
2018-02-24T00:58:10.360Z,17.73
2018-02-24T01:00:40.435Z,17.43
2018-02-24T01:03:09.690Z,19.47
2018-02-24T01:05:38.982Z,18.10
2018-02-24T01:08:08.898Z,15.77
2018-02-24T01:10:38.612Z,22.57
2018-02-24T01:13:08.317Z,14.10
2018-02-24T01:15:37.822Z,15.33
2018-02-24T01:18:07.691Z,20.57
2018-02-24T01:20:36.629Z,19.80
2018-02-24T01:23:06.338Z,15.40
2018-02-24T01:25:36.047Z,19.07
2018-02-24T01:28:06.374Z,16.30
2018-02-24T01:30:35.835Z,16.43
2018-02-24T01:33:04.772Z,18.37
2018-02-24T01:35:34.419Z,16.17
2018-02-24T01:38:03.781Z,15.20
2018-02-24T01:40:32.772Z,15.40
2018-02-24T01:43:02.386Z,20.27
2018-02-24T01:45:32.755Z,21.50
2018-02-24T01:48:02.624Z,18.80
2018-02-24T01:50:41.558Z,25.40
2018-02-24T01:53:11.995Z,19.00
2018-02-24T01:55:41.687Z,22.47
2018-02-24T01:58:10.984Z,20.70
2018-02-24T02:00:40.693Z,20.20
2018-02-24T02:03:09.998Z,24.70
2018-02-24T02:05:39.665Z,14.67
2018-02-24T02:08:09.008Z,18.87
2018-02-24T02:10:38.820Z,16.30
2018-02-24T02:13:08.535Z,21.73
2018-02-24T02:15:38.239Z,16.60
2018-02-24T02:18:08.133Z,22.40
2018-02-24T02:20:37.944Z,18.17
2018-02-24T02:23:07.267Z,17.03
2018-02-24T02:25:37.181Z,18.87
2018-02-24T02:28:06.486Z,16.80
2018-02-24T02:30:37.323Z,17.27
2018-02-24T02:33:07.338Z,14.87
2018-02-24T02:35:36.640Z,17.80
2018-02-24T02:38:06.966Z,18.15
2018-02-24T02:40:36.492Z,18.30
2018-02-24T02:43:05.564Z,17.37
2018-02-24T02:45:35.281Z,20.40
2018-02-24T02:48:05.190Z,28.90
2018-02-24T02:50:34.483Z,20.57
2018-02-24T02:53:03.173Z,20.63
2018-02-24T02:55:32.682Z,17.27
2018-02-24T02:58:01.469Z,19.07
2018-02-24T03:00:31.345Z,18.67
2018-02-24T03:03:01.500Z,17.93
2018-02-24T03:05:31.219Z,15.90
2018-02-24T03:10:35.962Z,16.17
2018-02-24T03:13:05.363Z,17.40
2018-02-24T03:15:35.692Z,18.73
2018-02-24T03:18:05.970Z,19.60
2018-02-24T03:20:35.218Z,20.07
2018-02-24T03:23:05.435Z,21.87
2018-02-24T03:25:34.943Z,17.80
2018-02-24T03:28:04.852Z,23.17
2018-02-24T03:30:34.060Z,24.67
2018-02-24T03:33:03.354Z,14.03
2018-02-24T03:35:33.018Z,15.43
2018-02-24T03:38:02.655Z,17.13
2018-02-24T03:40:32.437Z,15.57
2018-02-24T03:43:03.125Z,13.33
2018-02-24T03:45:32.516Z,20.20
2018-02-24T03:48:02.857Z,14.73
2018-02-24T03:50:32.560Z,17.57
2018-02-24T03:53:02.853Z,22.33
2018-02-24T03:55:32.373Z,15.73
2018-02-24T03:58:02.250Z,16.97
2018-02-24T04:00:31.435Z,19.43
2018-02-24T04:03:00.771Z,15.47
2018-02-24T04:05:31.431Z,15.20
2018-02-24T04:08:01.322Z,21.40
2018-02-24T04:10:30.647Z,19.33
2018-02-24T04:13:00.916Z,14.73
2018-02-24T04:15:30.683Z,15.57
2018-02-24T04:18:01.654Z,17.97
2018-02-24T04:20:31.540Z,15.10
2018-02-24T04:23:01.355Z,17.03
2018-02-24T04:25:31.116Z,17.40
2018-02-24T04:28:00.337Z,16.27
2018-02-24T04:30:29.316Z,21.20
2018-02-24T04:33:00.593Z,21.40
2018-02-24T04:35:29.901Z,27.07
2018-02-24T04:38:01.757Z,18.97
2018-02-24T04:40:31.545Z,18.30
2018-02-24T04:43:00.736Z,18.33
2018-02-24T04:45:31.606Z,25.67
2018-02-24T04:48:08.093Z,29.90
2018-02-24T04:50:38.036Z,19.20
2018-02-24T04:53:07.789Z,26.27
2018-02-24T04:55:37.527Z,16.40
2018-02-24T04:58:07.367Z,28.20
2018-02-24T05:00:37.485Z,22.10
2018-02-24T05:03:07.260Z,22.17
2018-02-24T05:05:37.355Z,25.50
2018-02-24T05:08:07.511Z,24.70
2018-02-24T05:10:37.553Z,18.93
2018-02-24T05:13:07.950Z,20.17
2018-02-24T05:15:37.248Z,26.07
2018-02-24T05:18:07.504Z,21.83
2018-02-24T05:20:37.310Z,24.73
2018-02-24T05:23:06.477Z,18.87
2018-02-24T05:25:35.665Z,18.93
2018-02-24T05:28:04.767Z,25.47
2018-02-24T05:30:34.380Z,30.77
2018-02-24T05:33:03.697Z,19.60
2018-02-24T05:35:34.208Z,18.50
2018-02-24T05:38:03.094Z,21.90
2018-02-24T05:40:31.926Z,22.70
2018-02-24T05:43:01.236Z,22.73
2018-02-24T05:45:30.894Z,23.00
2018-02-24T05:48:01.423Z,23.93
2018-02-24T05:50:31.543Z,16.77
2018-02-24T05:53:01.257Z,31.70
2018-02-24T05:55:30.565Z,31.87
2018-02-24T05:57:59.761Z,28.97
2018-02-24T06:00:29.574Z,19.57
2018-02-24T06:02:58.969Z,16.93
2018-02-24T06:05:28.482Z,21.80
2018-02-24T06:07:57.881Z,32.33
2018-02-24T06:10:26.684Z,19.90
2018-02-24T06:12:55.468Z,20.47
2018-02-24T06:15:24.758Z,18.60
2018-02-24T06:17:53.872Z,26.10
2018-02-24T06:20:23.462Z,25.10
2018-02-24T06:22:53.219Z,25.47
2018-02-24T06:25:22.908Z,27.00
2018-02-24T06:27:52.590Z,21.23
2018-02-24T06:30:22.304Z,30.00
2018-02-24T06:32:51.907Z,30.83
2018-02-24T06:35:20.808Z,15.10
2018-02-24T06:37:52.358Z,20.87
2018-02-24T06:40:21.231Z,25.50
2018-02-24T06:42:51.159Z,27.17
2018-02-24T06:45:21.286Z,32.83
2018-02-24T06:47:50.783Z,21.93
2018-02-24T06:50:20.392Z,15.43
2018-02-24T06:52:50.002Z,20.13
2018-02-24T06:55:19.502Z,17.13
2018-02-24T06:57:49.214Z,25.13
2018-02-24T07:00:18.930Z,20.60
2018-02-24T07:02:48.234Z,23.83
2018-02-24T07:05:17.731Z,19.10
2018-02-24T07:07:46.930Z,21.33
2018-02-24T07:10:16.230Z,20.07
2018-02-24T07:12:44.918Z,16.17
2018-02-24T07:15:14.218Z,31.03
2018-02-24T07:17:44.642Z,18.10
2018-02-24T07:20:13.942Z,26.87
2018-02-24T07:22:43.243Z,24.13
2018-02-24T07:25:12.141Z,18.27
2018-02-24T07:27:41.641Z,23.07
2018-02-24T07:30:11.760Z,23.03
2018-02-24T07:32:41.472Z,25.93
2018-02-24T07:35:10.371Z,17.07
2018-02-24T07:37:39.196Z,25.40
2018-02-24T07:40:09.214Z,19.70
2018-02-24T07:42:39.801Z,23.33
2018-02-24T07:45:09.315Z,21.70
2018-02-24T07:47:38.163Z,21.37
2018-02-24T07:50:07.502Z,23.57
2018-02-24T07:52:36.286Z,23.10
2018-02-24T07:55:05.905Z,17.47
2018-02-24T07:57:35.042Z,22.53
2018-02-24T08:00:05.226Z,17.47
2018-02-24T08:02:34.268Z,20.03
2018-02-24T08:05:04.538Z,28.37
2018-02-24T08:07:33.215Z,21.33
2018-02-24T08:10:03.439Z,20.43
2018-02-24T08:12:32.945Z,22.20
2018-02-24T08:15:03.473Z,23.90
2018-02-24T08:17:32.944Z,23.80
2018-02-24T08:20:03.859Z,22.10
2018-02-24T08:22:33.428Z,29.57
2018-02-24T08:25:04.574Z,17.43
2018-02-24T08:27:33.256Z,15.30
2018-02-24T08:30:03.784Z,20.77
2018-02-24T08:32:32.972Z,26.30
2018-02-24T08:35:01.877Z,31.50
2018-02-24T08:37:32.202Z,19.13
2018-02-24T08:40:01.849Z,21.03
2018-02-24T08:42:30.942Z,19.77
2018-02-24T08:45:00.422Z,19.63
2018-02-24T08:47:30.635Z,20.50
2018-02-24T08:50:00.552Z,22.53
2018-02-24T08:52:29.387Z,25.47
2018-02-24T08:54:58.945Z,22.13
2018-02-24T08:57:29.984Z,24.17
2018-02-24T08:59:59.490Z,19.80
2018-02-24T09:02:28.583Z,25.97
2018-02-24T09:04:58.086Z,21.40
2018-02-24T09:07:27.601Z,21.87
2018-02-24T09:09:56.892Z,26.40
2018-02-24T09:12:25.993Z,16.30
2018-02-24T09:14:55.493Z,21.73
2018-02-24T09:17:25.407Z,25.30
2018-02-24T09:19:54.708Z,24.40
2018-02-24T09:22:23.601Z,33.43
2018-02-24T09:24:53.108Z,23.53
2018-02-24T09:27:22.609Z,17.20
2018-02-24T09:29:52.733Z,17.57
2018-02-24T09:32:22.179Z,19.17
2018-02-24T09:34:50.923Z,20.90
2018-02-24T09:37:20.436Z,24.20
2018-02-24T09:39:49.734Z,20.93
2018-02-24T09:42:19.176Z,19.27
2018-02-24T09:44:47.918Z,24.13
2018-02-24T09:47:17.424Z,29.40
2018-02-24T09:49:48.174Z,18.53
2018-02-24T09:52:17.664Z,29.67
2018-02-24T09:54:47.995Z,24.77
2018-02-24T09:57:17.644Z,16.03
2018-02-24T09:59:48.097Z,18.93
2018-02-24T10:02:17.137Z,15.03
2018-02-24T10:04:46.632Z,18.03
2018-02-24T10:07:16.341Z,13.70
2018-02-24T10:09:47.272Z,15.50
2018-02-24T10:12:17.596Z,11.77
2018-02-24T10:14:47.319Z,15.53
2018-02-24T10:17:16.815Z,16.93
2018-02-24T10:19:46.221Z,14.40
2018-02-24T10:22:15.826Z,23.83
2018-02-24T10:24:45.844Z,31.30
2018-02-24T10:27:15.861Z,19.63
2018-02-24T10:29:44.650Z,37.37
2018-02-24T10:32:14.563Z,19.40
2018-02-24T10:34:44.682Z,29.67
2018-02-24T10:37:14.187Z,27.97
2018-02-24T10:39:44.103Z,21.87
2018-02-24T10:42:13.413Z,30.80
2018-02-24T10:44:43.525Z,17.80
2018-02-24T10:47:13.648Z,19.03
2018-02-24T10:49:43.147Z,21.53
2018-02-24T10:52:12.755Z,16.30
2018-02-24T10:54:42.261Z,16.20
2018-02-24T10:57:12.379Z,47.67
2018-02-24T10:59:41.887Z,21.10
2018-02-24T11:02:11.804Z,19.73
2018-02-24T11:04:42.025Z,17.30
2018-02-24T11:07:11.656Z,17.40
2018-02-24T11:09:41.136Z,23.50
2018-02-24T11:12:10.232Z,20.70
2018-02-24T11:14:40.350Z,15.40
2018-02-24T11:17:10.331Z,19.70
2018-02-24T11:19:40.184Z,13.47
2018-02-24T11:22:09.690Z,15.30
2018-02-24T11:24:40.013Z,20.67
2018-02-24T11:27:09.723Z,16.83
2018-02-24T11:29:39.025Z,15.93
2018-02-24T11:32:08.124Z,12.87
2018-02-24T11:34:37.832Z,22.47
2018-02-24T11:37:07.957Z,23.70
2018-02-24T11:39:40.322Z,20.37
2018-02-24T11:42:10.205Z,22.20
2018-02-24T11:44:40.975Z,17.07
2018-02-24T11:47:11.376Z,19.07
2018-02-24T11:49:42.118Z,16.90
2018-02-24T11:52:11.553Z,16.60
2018-02-24T11:54:40.809Z,24.90
2018-02-24T11:57:10.655Z,16.73
2018-02-24T11:59:40.266Z,35.33
2018-02-24T12:02:10.532Z,12.70
2018-02-24T12:04:40.085Z,20.63
2018-02-24T12:07:09.782Z,22.73
2018-02-24T12:09:39.095Z,25.57
2018-02-24T12:12:08.891Z,20.93
2018-02-24T12:17:14.285Z,12.60
2018-02-24T12:19:44.392Z,12.43
2018-02-24T12:22:14.413Z,12.67
2018-02-24T12:24:44.532Z,18.40
2018-02-24T12:27:14.604Z,15.20
2018-02-24T12:29:44.049Z,19.77
2018-02-24T12:32:14.371Z,13.90
2018-02-24T12:34:44.342Z,13.97
2018-02-24T12:37:13.690Z,19.20
2018-02-24T12:39:43.195Z,16.93
2018-02-24T12:42:13.112Z,13.30
2018-02-24T12:44:43.540Z,12.27
2018-02-24T12:47:13.770Z,17.80
2018-02-24T12:49:43.880Z,20.47
2018-02-24T12:52:13.385Z,48.87
2018-02-24T12:54:43.316Z,18.17
2018-02-24T12:57:13.701Z,13.73
2018-02-24T12:59:43.131Z,12.73
2018-02-24T13:02:13.108Z,17.67
2018-02-24T13:04:42.115Z,14.00
2018-02-24T13:07:12.269Z,18.67
2018-02-24T13:09:41.102Z,16.40
2018-02-24T13:12:10.252Z,11.37
2018-02-24T13:14:40.113Z,13.13
2018-02-24T13:17:10.084Z,10.97
2018-02-24T13:19:39.584Z,11.23
2018-02-24T13:22:10.116Z,13.17
2018-02-24T13:24:40.435Z,12.30
2018-02-24T13:27:09.281Z,14.50
2018-02-24T13:29:38.832Z,10.20
2018-02-24T13:32:08.138Z,16.20
2018-02-24T13:34:37.640Z,14.40
2018-02-24T13:37:07.965Z,15.83
2018-02-24T13:39:38.291Z,13.20
2018-02-24T13:42:09.433Z,10.37
2018-02-24T13:44:39.149Z,10.63
2018-02-24T13:47:10.288Z,9.17
2018-02-24T13:49:40.201Z,10.93
2018-02-24T14:00:46.219Z,12.47
2018-02-24T14:03:15.529Z,7.53
2018-02-24T14:05:44.414Z,8.10
2018-02-24T14:08:13.031Z,5.47
2018-02-24T14:10:41.785Z,7.57
2018-02-24T14:13:10.472Z,9.73
2018-02-24T14:15:39.363Z,6.50
2018-02-24T14:18:08.152Z,8.17
2018-02-24T14:20:37.050Z,7.27
2018-02-24T14:23:05.929Z,7.60
2018-02-24T14:25:34.620Z,5.63
2018-02-24T14:28:03.405Z,4.60
2018-02-24T14:30:32.421Z,8.67
2018-02-24T14:33:01.085Z,7.80
2018-02-24T14:35:29.773Z,5.20
2018-02-24T14:37:58.663Z,4.83
2018-02-24T14:40:27.350Z,9.30
2018-02-24T14:42:56.239Z,5.93
2018-02-24T14:45:24.930Z,6.37
2018-02-24T14:47:53.712Z,5.60
2018-02-24T14:50:22.500Z,5.30
2018-02-24T14:52:51.189Z,4.07
2018-02-24T14:55:20.063Z,4.67
2018-02-24T14:57:48.971Z,8.53
2018-02-24T15:00:17.959Z,5.70
2018-02-24T15:02:47.172Z,4.60
2018-02-24T15:05:16.256Z,6.87
2018-02-24T15:07:45.447Z,4.90
2018-02-24T15:10:14.428Z,12.23
2018-02-24T15:12:43.445Z,10.77
2018-02-24T15:15:13.575Z,10.30
2018-02-24T15:17:44.503Z,11.77
2018-02-24T15:20:13.891Z,6.97
2018-02-24T15:22:43.893Z,7.03
2018-02-24T15:25:13.049Z,9.37
2018-02-24T15:27:42.232Z,11.97
2018-02-24T15:30:11.934Z,6.10
2018-02-24T15:32:41.094Z,5.40
2018-02-24T15:35:10.327Z,7.97
2018-02-24T15:37:39.222Z,5.07
2018-02-24T15:40:08.313Z,10.50
2018-02-24T15:42:38.087Z,7.50
2018-02-24T15:45:07.112Z,17.37
2018-02-24T15:47:36.276Z,7.00
2018-02-24T15:50:05.309Z,5.80
2018-02-24T15:52:35.204Z,5.80
2018-02-24T15:55:04.334Z,8.73
2018-02-24T15:57:33.390Z,6.80
2018-02-24T16:00:02.716Z,8.60
2018-02-24T16:02:31.605Z,8.10
2018-02-24T16:05:00.656Z,13.60
2018-02-24T16:07:29.764Z,4.77
2018-02-24T16:09:58.890Z,6.07
2018-02-24T16:12:28.056Z,12.00
2018-02-24T16:14:57.419Z,9.57
2018-02-24T16:17:26.393Z,7.70
2018-02-24T16:19:55.435Z,8.57
2018-02-24T16:22:24.577Z,10.20
2018-02-24T16:24:53.687Z,10.47
2018-02-24T16:27:22.921Z,8.03
2018-02-24T16:29:52.150Z,8.63
2018-02-24T16:32:21.473Z,9.57
2018-02-24T16:34:50.257Z,6.30
2018-02-24T16:37:18.943Z,11.33
2018-02-24T16:39:47.906Z,8.17
2018-02-24T16:42:16.752Z,7.77
2018-02-24T16:44:46.724Z,6.70
2018-02-24T16:47:15.649Z,8.80
2018-02-24T16:49:44.423Z,9.10
2018-02-24T16:52:13.292Z,9.30
2018-02-24T16:54:42.277Z,10.53
2018-02-24T16:57:10.994Z,8.07
2018-02-24T16:59:39.683Z,6.33
2018-02-24T17:02:08.579Z,7.60
2018-02-24T17:04:37.260Z,7.73
2018-02-24T17:07:05.943Z,6.80
2018-02-24T17:09:34.633Z,9.43
2018-02-24T17:12:03.498Z,10.30
2018-02-24T17:14:33.129Z,9.43
2018-02-24T17:17:01.926Z,6.47
2018-02-24T17:19:30.813Z,10.97
2018-02-24T17:21:59.498Z,8.00
2018-02-24T17:24:28.179Z,10.43
2018-02-24T17:26:57.280Z,8.97
2018-02-24T17:29:26.273Z,13.90
2018-02-24T17:31:55.063Z,13.27
2018-02-24T17:34:23.992Z,7.07
2018-02-24T17:36:53.456Z,17.83
2018-02-24T17:39:23.164Z,5.17
2018-02-24T17:41:51.952Z,10.73
2018-02-24T17:44:20.744Z,10.83
2018-02-24T17:46:49.775Z,10.50
2018-02-24T17:49:18.524Z,7.33
2018-02-24T17:51:47.417Z,8.43
2018-02-24T17:54:16.309Z,12.37
2018-02-24T17:56:44.997Z,9.30
2018-02-24T17:59:13.678Z,9.90
2018-02-24T18:01:42.364Z,10.03
2018-02-24T18:04:11.358Z,6.73
2018-02-24T18:06:40.031Z,11.27
2018-02-24T18:09:08.731Z,7.73
2018-02-24T18:11:38.550Z,9.03
2018-02-24T18:14:07.343Z,29.27
2018-02-24T18:16:36.059Z,10.70
2018-02-24T18:19:05.010Z,11.80
2018-02-24T18:21:33.698Z,9.80
2018-02-24T18:24:02.612Z,9.30
2018-02-24T18:26:31.376Z,8.63
2018-02-24T18:29:00.302Z,13.80
2018-02-24T18:31:30.083Z,7.30
2018-02-24T18:33:59.180Z,10.73
2018-02-24T18:36:28.331Z,8.63
2018-02-24T18:38:57.295Z,8.67
2018-02-24T18:41:26.159Z,12.80
2018-02-24T18:43:54.948Z,10.13
2018-02-24T18:46:23.688Z,7.60
2018-02-24T18:48:53.348Z,11.00
2018-02-24T18:51:23.158Z,11.57
2018-02-24T18:53:51.944Z,10.03
2018-02-24T18:56:20.834Z,10.70
2018-02-24T18:58:49.631Z,7.77
2018-02-24T19:01:18.726Z,10.03
2018-02-24T19:03:47.609Z,9.10
2018-02-24T19:06:16.511Z,9.20
2018-02-24T19:08:45.395Z,8.07
2018-02-24T19:11:14.594Z,11.63
2018-02-24T19:13:43.282Z,8.50
2018-02-24T19:16:12.169Z,8.33
2018-02-24T19:18:41.057Z,9.90
2018-02-24T19:21:10.962Z,11.93
2018-02-24T19:23:39.669Z,10.93
2018-02-24T19:26:08.551Z,9.50
2018-02-24T19:28:37.137Z,8.03
2018-02-24T19:31:06.052Z,10.90
2018-02-24T19:33:34.864Z,11.37
2018-02-24T19:38:38.909Z,10.30
2018-02-24T19:41:07.837Z,10.00
2018-02-24T19:43:36.941Z,12.77
2018-02-24T19:46:05.758Z,8.87
2018-02-24T19:48:34.510Z,15.17
2018-02-24T19:51:04.014Z,13.60
2018-02-24T19:53:33.859Z,7.70
2018-02-24T19:56:03.035Z,11.73
2018-02-24T19:58:31.940Z,18.57
2018-02-24T20:01:00.805Z,7.53
2018-02-24T20:03:29.697Z,11.97
2018-02-24T20:05:58.384Z,17.20
2018-02-24T20:08:27.282Z,9.80
2018-02-24T20:10:56.219Z,10.33
2018-02-24T20:13:24.851Z,10.20
2018-02-24T20:15:54.154Z,9.50
2018-02-24T20:18:22.838Z,10.43
2018-02-24T20:20:51.526Z,15.83
2018-02-24T20:23:21.235Z,15.30
2018-02-24T20:25:50.128Z,15.63
2018-02-24T20:28:19.017Z,14.30
2018-02-24T20:30:48.522Z,12.47
2018-02-24T20:33:17.413Z,11.90
2018-02-24T20:35:46.515Z,13.05
2018-02-24T20:38:15.401Z,17.30
2018-02-24T20:40:44.295Z,12.37
2018-02-24T20:43:13.189Z,15.23
2018-02-24T20:45:42.073Z,19.50
2018-02-24T20:48:23.413Z,13.17
2018-02-24T20:50:53.075Z,11.87
2018-02-24T20:53:21.853Z,13.10
2018-02-24T20:55:50.746Z,15.53
2018-02-24T20:58:19.637Z,17.40
2018-02-24T21:00:49.353Z,11.40
2018-02-24T21:03:18.124Z,15.77
2018-02-24T21:05:47.231Z,18.73
2018-02-24T21:08:16.124Z,18.67
2018-02-24T21:10:44.918Z,18.70
2018-02-24T21:16:10.814Z,17.10
2018-02-24T21:18:40.462Z,20.33
2018-02-24T21:21:09.340Z,22.63
2018-02-24T21:23:56.265Z,19.70
2018-02-24T21:26:24.951Z,15.60
2018-02-24T21:28:53.842Z,13.97
2018-02-24T21:31:22.991Z,15.13
2018-02-24T21:33:51.666Z,12.23
2018-02-24T21:36:21.286Z,17.00
2018-02-24T21:38:50.123Z,15.20
2018-02-24T21:41:18.757Z,22.33
2018-02-24T21:43:48.753Z,22.77
2018-02-24T21:46:17.558Z,25.60
2018-02-24T21:48:47.021Z,20.50
2018-02-24T21:51:21.746Z,16.03
2018-02-24T21:53:50.536Z,15.83
2018-02-24T21:56:19.428Z,13.93
2018-02-24T21:58:48.317Z,18.07
2018-02-24T22:01:17.006Z,28.70
2018-02-24T22:03:45.630Z,14.83
2018-02-24T22:06:14.377Z,11.67
2018-02-24T22:08:43.065Z,14.20
2018-02-24T22:11:11.751Z,21.20
2018-02-24T22:13:40.374Z,17.00
2018-02-24T22:16:09.121Z,16.47
2018-02-24T22:18:37.807Z,16.90
2018-02-24T22:21:06.640Z,15.57
2018-02-24T22:23:35.388Z,15.63
2018-02-24T22:26:04.072Z,14.57
2018-02-24T22:28:32.965Z,18.77
2018-02-24T22:31:01.649Z,18.13
2018-02-24T22:36:28.307Z,24.50
2018-02-24T22:38:58.222Z,19.67
2018-02-24T22:41:27.317Z,16.87
2018-02-24T22:43:56.822Z,16.75
2018-02-24T22:46:25.509Z,24.73
2018-02-24T22:48:59.826Z,26.30
2018-02-24T22:51:28.802Z,16.70
2018-02-24T22:53:57.675Z,18.87
2018-02-24T22:56:26.423Z,19.80
2018-02-24T22:58:55.288Z,14.67
2018-02-24T23:01:24.188Z,15.97
2018-02-24T23:03:53.074Z,15.47
2018-02-24T23:06:21.757Z,11.80
2018-02-24T23:08:50.453Z,21.53
2018-02-24T23:11:19.334Z,18.80
2018-02-24T23:13:48.124Z,12.27
2018-02-24T23:16:16.811Z,18.23
2018-02-24T23:18:46.213Z,21.70
2018-02-24T23:21:14.899Z,21.60
2018-02-24T23:23:43.691Z,20.90
2018-02-24T23:26:12.372Z,12.27
2018-02-24T23:28:41.061Z,22.07
2018-02-24T23:31:09.733Z,17.13
2018-02-24T23:33:38.534Z,19.43
2018-02-24T23:36:07.425Z,18.97
2018-02-24T23:38:36.216Z,20.10
2018-02-24T23:41:04.900Z,16.07
2018-02-24T23:43:33.586Z,23.97
2018-02-24T23:46:02.378Z,23.53
2018-02-24T23:48:31.267Z,21.47
2018-02-24T23:50:59.952Z,14.97
2018-02-24T23:53:29.010Z,22.00
2018-02-24T23:55:57.845Z,21.03
2018-02-24T23:58:26.523Z,16.03
